Time;durP1;ratioP1;P1;durP2;ratioP2;P2;SDS_P1;SDS_P2;PMS_P1;PMS_P2;Temp;Humidity;BMP_temperature;BMP_pressure;BME280_temperature;BME280_humidity;BME280_pressure;Samples;Min_cycle;Max_cycle;Signal;HPM_P1;HPM_P2
2022/09/23 00:02:15;;;;;;;0.60;0.60;;;;;;;;;;1832087;77;27167;-50
2022/09/23 00:04:43;;;;;;;0.72;0.50;;;;;;;;;;1826448;77;26340;-52
2022/09/23 00:07:10;;;;;;;1.57;0.50;;;;;;;;;;1805318;79;26275;-45
2022/09/23 00:09:37;;;;;;;0.40;0.40;;;;;;;;;;1796292;79;26716;-47
2022/09/23 00:12:05;;;;;;;0.98;0.93;;;;;;;;;;1840481;77;26575;-48
2022/09/23 00:14:32;;;;;;;1.10;0.47;;;;;;;;;;1834558;77;26242;-50
2022/09/23 00:16:59;;;;;;;0.50;0.50;;;;;;;;;;1839724;76;26581;-48
2022/09/23 00:19:27;;;;;;;0.42;0.42;;;;;;;;;;1840821;78;26308;-48
2022/09/23 00:21:55;;;;;;;0.62;0.62;;;;;;;;;;1841357;76;26262;-46
2022/09/23 00:24:23;;;;;;;0.60;0.60;;;;;;;;;;1840610;78;26325;-46
2022/09/23 00:26:50;;;;;;;0.50;0.50;;;;;;;;;;1840931;78;26735;-50
2022/09/23 00:29:17;;;;;;;0.50;0.50;;;;;;;;;;1840991;78;27307;-45
2022/09/23 00:31:45;;;;;;;0.40;0.40;;;;;;;;;;1842882;77;26925;-48
2022/09/23 00:34:12;;;;;;;0.50;0.50;;;;;;;;;;1845799;77;26716;-48
2022/09/23 00:36:39;;;;;;;0.98;0.50;;;;;;;;;;1851001;77;26284;-52
2022/09/23 00:39:06;;;;;;;2.80;0.60;;;;;;;;;;1850728;77;26289;-48
2022/09/23 00:41:34;;;;;;;0.42;0.42;;;;;;;;;;1843379;77;26251;-48
2022/09/23 00:44:02;;;;;;;1.40;0.50;;;;;;;;;;1846302;77;26258;-46
2022/09/23 00:46:31;;;;;;;0.55;0.55;;;;;;;;;;1848471;76;26337;-55
2022/09/23 00:48:59;;;;;;;0.40;0.40;;;;;;;;;;1830021;76;26278;-46
2022/09/23 00:51:28;;;;;;;1.17;0.45;;;;;;;;;;1822624;77;26279;-51
2022/09/23 00:53:56;;;;;;;0.40;0.40;;;;;;;;;;1874416;75;26251;-46
2022/09/23 00:56:24;;;;;;;0.65;0.57;;;;;;;;;;1897420;74;26705;-50
2022/09/23 00:58:52;;;;;;;1.17;0.40;;;;;;;;;;1892607;74;26231;-52
2022/09/23 01:01:20;;;;;;;1.20;0.50;;;;;;;;;;1889338;75;26648;-47
2022/09/23 01:03:48;;;;;;;0.40;0.40;;;;;;;;;;1892825;75;26730;-48
2022/09/23 01:06:16;;;;;;;0.50;0.50;;;;;;;;;;1901631;75;26321;-45
2022/09/23 01:08:44;;;;;;;0.50;0.50;;;;;;;;;;1900715;74;26226;-52
2022/09/23 01:11:13;;;;;;;0.80;0.53;;;;;;;;;;1897845;75;26231;-51
2022/09/23 01:13:48;;;;;;;0.62;0.62;;;;;;;;;;1897551;75;27360;-50
2022/09/23 01:16:19;;;;;;;0.62;0.50;;;;;;;;;;1866502;75;26254;-49
2022/09/23 01:18:52;;;;;;;1.50;0.60;;;;;;;;;;1893017;74;26313;-50
2022/09/23 01:21:23;;;;;;;0.57;0.57;;;;;;;;;;1890886;74;26930;-50
2022/09/23 01:23:55;;;;;;;1.55;0.50;;;;;;;;;;1897585;75;26741;-45
2022/09/23 01:26:26;;;;;;;0.70;0.57;;;;;;;;;;1896567;75;26241;-51
2022/09/23 01:28:55;;;;;;;0.37;0.37;;;;;;;;;;1898653;75;26229;-49
2022/09/23 01:31:24;;;;;;;1.07;0.60;;;;;;;;;;1900541;75;26266;-48
2022/09/23 01:33:55;;;;;;;0.42;0.42;;;;;;;;;;1907416;74;26302;-50
2022/09/23 01:36:38;;;;;;;0.75;0.50;;;;;;;;;;1906608;75;26294;-52
2022/09/23 01:39:23;;;;;;;1.02;0.40;;;;;;;;;;1907408;75;27113;-46
2022/09/23 01:42:04;;;;;;;1.00;0.45;;;;;;;;;;1907370;75;26315;-50
2022/09/23 01:44:33;;;;;;;0.78;0.50;;;;;;;;;;1907550;75;26271;-49
2022/09/23 01:47:14;;;;;;;0.40;0.40;;;;;;;;;;1907608;74;26248;-47
2022/09/23 01:49:43;;;;;;;0.57;0.57;;;;;;;;;;1880290;74;26292;-49
2022/09/23 01:52:21;;;;;;;0.90;0.60;;;;;;;;;;1884966;74;26194;-48
2022/09/23 01:54:50;;;;;;;0.53;0.53;;;;;;;;;;1874104;74;26671;-51
2022/09/23 01:57:25;;;;;;;0.55;0.55;;;;;;;;;;1906285;74;26228;-46
2022/09/23 01:59:53;;;;;;;0.70;0.60;;;;;;;;;;1908234;74;27381;-46
2022/09/23 02:02:22;;;;;;;0.47;0.47;;;;;;;;;;1875167;74;27480;-48
2022/09/23 02:04:53;;;;;;;0.93;0.40;;;;;;;;;;1882590;74;26784;-47
2022/09/23 02:07:21;;;;;;;0.40;0.40;;;;;;;;;;1878415;74;26273;-47
2022/09/23 02:09:52;;;;;;;0.50;0.50;;;;;;;;;;1900460;74;26277;-54
2022/09/23 02:12:20;;;;;;;0.40;0.40;;;;;;;;;;1880781;74;26363;-45
2022/09/23 02:14:49;;;;;;;0.50;0.50;;;;;;;;;;1893453;74;26799;-49
2022/09/23 02:17:17;;;;;;;0.50;0.50;;;;;;;;;;1881859;74;26829;-53
2022/09/23 02:19:46;;;;;;;1.47;0.40;;;;;;;;;;1883976;75;26753;-51
2022/09/23 02:22:18;;;;;;;0.55;0.30;;;;;;;;;;1890504;74;26253;-48
2022/09/23 02:24:46;;;;;;;0.50;0.50;;;;;;;;;;1887290;74;26553;-47
2022/09/23 02:27:21;;;;;;;0.37;0.37;;;;;;;;;;1889220;74;26273;-45
2022/09/23 02:29:56;;;;;;;0.45;0.45;;;;;;;;;;1886324;74;26344;-46
2022/09/23 02:32:37;;;;;;;0.40;0.40;;;;;;;;;;1876253;74;26375;-46
2022/09/23 02:35:09;;;;;;;0.40;0.40;;;;;;;;;;1874549;74;26259;-49
2022/09/23 02:37:38;;;;;;;0.80;0.40;;;;;;;;;;1904241;74;26301;-46
2022/09/23 02:40:09;;;;;;;0.40;0.33;;;;;;;;;;1894089;74;26267;-50
2022/09/23 02:42:38;;;;;;;0.50;0.50;;;;;;;;;;1899294;74;26252;-53
2022/09/23 02:45:06;;;;;;;0.50;0.50;;;;;;;;;;1884028;74;26297;-48
2022/09/23 02:47:35;;;;;;;0.37;0.37;;;;;;;;;;1886023;74;26247;-52
2022/09/23 02:50:02;;;;;;;0.60;0.50;;;;;;;;;;1863365;74;26352;-47
2022/09/23 02:52:29;;;;;;;0.60;0.60;;;;;;;;;;1860811;74;26816;-46
2022/09/23 02:54:57;;;;;;;0.50;0.50;;;;;;;;;;1821435;77;26665;-49
2022/09/23 02:57:24;;;;;;;0.40;0.40;;;;;;;;;;1838389;76;26278;-47
2022/09/23 02:59:52;;;;;;;0.60;0.60;;;;;;;;;;1821334;77;26829;-48
2022/09/23 03:02:37;;;;;;;0.47;0.47;;;;;;;;;;1826553;76;26254;-50
2022/09/23 03:05:06;;;;;;;0.30;0.30;;;;;;;;;;1827507;76;26263;-46
2022/09/23 03:07:35;;;;;;;0.80;0.50;;;;;;;;;;1844420;76;26278;-49
2022/09/23 03:10:06;;;;;;;0.60;0.37;;;;;;;;;;1846753;76;26269;-50
2022/09/23 03:12:51;;;;;;;0.42;0.42;;;;;;;;;;1829852;76;26223;-47
2022/09/23 03:15:37;;;;;;;0.45;0.45;;;;;;;;;;1831977;76;26292;-50
2022/09/23 03:18:06;;;;;;;0.40;0.40;;;;;;;;;;1821254;77;26297;-49
2022/09/23 03:20:38;;;;;;;0.70;0.50;;;;;;;;;;1850708;76;26344;-48
2022/09/23 03:23:10;;;;;;;2.40;0.65;;;;;;;;;;1827076;76;25751;-50
2022/09/23 03:25:39;;;;;;;0.40;0.40;;;;;;;;;;1821435;77;26366;-50
2022/09/23 03:28:07;;;;;;;0.37;0.37;;;;;;;;;;1825978;76;26310;-48
2022/09/23 03:30:36;;;;;;;0.40;0.40;;;;;;;;;;1811887;77;26356;-46
2022/09/23 03:33:05;;;;;;;0.40;0.40;;;;;;;;;;1819979;76;26322;-49
2022/09/23 03:36:48;;;;;;;0.50;0.50;;;;;;;;;;1821221;76;26344;-51
2022/09/23 03:38:07;;;;;;;0.45;0.45;;;;;;;;;;1834637;76;26367;-52
2022/09/23 03:40:40;;;;;;;1.30;0.40;;;;;;;;;;1876952;74;26287;-50
2022/09/23 03:43:05;;;;;;;1.07;0.47;;;;;;;;;;1894095;74;26291;-49
2022/09/23 03:45:33;;;;;;;2.98;0.60;;;;;;;;;;1894017;74;26176;-50
2022/09/23 03:48:01;;;;;;;0.98;0.50;;;;;;;;;;1892455;74;26343;-47
2022/09/23 03:50:28;;;;;;;2.20;0.50;;;;;;;;;;1895133;75;26300;-56
2022/09/23 03:52:55;;;;;;;0.50;0.50;;;;;;;;;;1895925;74;26719;-51
2022/09/23 03:55:23;;;;;;;0.50;0.50;;;;;;;;;;1898002;74;26324;-51
2022/09/23 03:57:50;;;;;;;0.50;0.45;;;;;;;;;;1892376;74;26247;-50
2022/09/23 04:00:17;;;;;;;0.30;0.30;;;;;;;;;;1892878;74;26230;-49
2022/09/23 04:02:44;;;;;;;0.72;0.50;;;;;;;;;;1894385;74;26869;-49
2022/09/23 04:05:13;;;;;;;0.40;0.40;;;;;;;;;;1893020;74;26251;-51
2022/09/23 04:07:41;;;;;;;0.60;0.60;;;;;;;;;;1892756;74;26227;-48
2022/09/23 04:10:09;;;;;;;0.85;0.60;;;;;;;;;;1895085;74;26311;-54
2022/09/23 04:12:36;;;;;;;0.60;0.60;;;;;;;;;;1896879;74;26759;-48
2022/09/23 04:15:04;;;;;;;0.75;0.70;;;;;;;;;;1895726;75;26246;-48
2022/09/23 04:17:31;;;;;;;0.40;0.40;;;;;;;;;;1890920;74;26246;-50
2022/09/23 04:19:59;;;;;;;0.53;0.53;;;;;;;;;;1892996;74;26281;-56
2022/09/23 04:22:26;;;;;;;0.40;0.40;;;;;;;;;;1892729;74;26317;-51
2022/09/23 04:24:53;;;;;;;0.70;0.53;;;;;;;;;;1895098;74;26517;-50
2022/09/23 04:27:21;;;;;;;0.40;0.40;;;;;;;;;;1894537;74;26219;-46
2022/09/23 04:29:48;;;;;;;0.40;0.40;;;;;;;;;;1895150;74;26289;-51
2022/09/23 04:32:15;;;;;;;0.50;0.50;;;;;;;;;;1889048;74;26211;-45
2022/09/23 04:34:43;;;;;;;0.47;0.47;;;;;;;;;;1892903;74;26287;-52
2022/09/23 04:37:10;;;;;;;0.62;0.50;;;;;;;;;;1890414;74;26308;-52
2022/09/23 04:39:37;;;;;;;0.93;0.53;;;;;;;;;;1893620;74;26262;-49
2022/09/23 04:42:05;;;;;;;0.42;0.42;;;;;;;;;;1895611;74;26276;-50
2022/09/23 04:44:33;;;;;;;0.30;0.30;;;;;;;;;;1890041;74;27310;-52
2022/09/23 04:47:01;;;;;;;0.50;0.50;;;;;;;;;;1892829;74;26294;-55
2022/09/23 04:49:32;;;;;;;0.50;0.50;;;;;;;;;;1894635;74;26344;-53
2022/09/23 04:51:57;;;;;;;1.30;0.42;;;;;;;;;;1895763;74;26424;-49
2022/09/23 04:54:24;;;;;;;0.50;0.50;;;;;;;;;;1895730;74;26259;-49
2022/09/23 04:56:51;;;;;;;0.40;0.40;;;;;;;;;;1893624;74;26301;-56
2022/09/23 04:59:18;;;;;;;0.50;0.50;;;;;;;;;;1895765;74;26306;-48
2022/09/23 05:01:46;;;;;;;1.25;0.50;;;;;;;;;;1895141;74;26285;-45
2022/09/23 05:04:13;;;;;;;1.98;0.50;;;;;;;;;;1895415;74;26215;-47
2022/09/23 05:06:43;;;;;;;1.70;0.60;;;;;;;;;;1892923;74;26299;-51
2022/09/23 05:09:11;;;;;;;5.50;0.70;;;;;;;;;;1893057;74;26391;-50
2022/09/23 05:11:39;;;;;;;4.60;0.82;;;;;;;;;;1892067;75;26267;-51
2022/09/23 05:14:06;;;;;;;1.87;0.57;;;;;;;;;;1898363;74;26574;-51
2022/09/23 05:16:34;;;;;;;2.50;0.68;;;;;;;;;;1895316;74;26352;-49
2022/09/23 05:19:02;;;;;;;4.25;0.57;;;;;;;;;;1894514;74;26267;-51
2022/09/23 05:21:30;;;;;;;4.40;0.90;;;;;;;;;;1896184;74;26726;-55
2022/09/23 05:24:01;;;;;;;1.85;0.80;;;;;;;;;;1896658;74;26722;-53
2022/09/23 05:26:27;;;;;;;2.85;0.60;;;;;;;;;;1892837;74;27664;-52
2022/09/23 05:28:55;;;;;;;4.83;0.90;;;;;;;;;;1895817;74;26737;-46
2022/09/23 05:31:24;;;;;;;2.65;0.78;;;;;;;;;;1895609;74;26241;-51
2022/09/23 05:33:52;;;;;;;3.83;0.75;;;;;;;;;;1895528;74;26269;-51
2022/09/23 05:36:21;;;;;;;2.80;0.70;;;;;;;;;;1893165;74;26233;-51
2022/09/23 05:38:50;;;;;;;2.33;0.78;;;;;;;;;;1900356;74;26233;-52
2022/09/23 05:41:18;;;;;;;3.58;0.90;;;;;;;;;;1887943;74;26270;-52
2022/09/23 05:43:46;;;;;;;4.03;1.25;;;;;;;;;;1895233;75;26324;-50
2022/09/23 05:46:14;;;;;;;1.02;0.70;;;;;;;;;;1883903;74;26239;-49
2022/09/23 05:48:42;;;;;;;1.55;1.10;;;;;;;;;;1879670;74;26337;-47
2022/09/23 05:51:11;;;;;;;3.00;0.90;;;;;;;;;;1892160;74;26281;-45
2022/09/23 05:53:43;;;;;;;2.33;0.70;;;;;;;;;;1884813;74;26338;-49
2022/09/23 05:56:09;;;;;;;1.92;0.75;;;;;;;;;;1882936;74;26396;-45
2022/09/23 05:58:36;;;;;;;6.45;1.50;;;;;;;;;;1891024;74;26343;-48
2022/09/23 06:01:10;;;;;;;7.90;0.75;;;;;;;;;;1873590;74;26242;-53
2022/09/23 06:03:38;;;;;;;1.87;0.90;;;;;;;;;;1880986;74;26219;-51
2022/09/23 06:06:06;;;;;;;2.35;0.70;;;;;;;;;;1882030;74;26324;-54
2022/09/23 06:08:33;;;;;;;3.20;1.00;;;;;;;;;;1874485;75;26243;-48
2022/09/23 06:11:10;;;;;;;5.37;0.90;;;;;;;;;;1911559;74;26249;-48
2022/09/23 06:13:36;;;;;;;2.83;0.95;;;;;;;;;;1873618;74;26372;-48
2022/09/23 06:16:04;;;;;;;5.58;1.05;;;;;;;;;;1885673;74;26897;-47
2022/09/23 06:18:31;;;;;;;1.55;0.80;;;;;;;;;;1882575;74;26227;-46
2022/09/23 06:21:02;;;;;;;3.33;0.90;;;;;;;;;;1876466;74;26233;-51
2022/09/23 06:23:30;;;;;;;3.72;0.70;;;;;;;;;;1864008;74;26493;-52
2022/09/23 06:26:01;;;;;;;2.02;0.75;;;;;;;;;;1870984;74;26218;-46
2022/09/23 06:28:31;;;;;;;1.82;0.80;;;;;;;;;;1892255;74;26243;-59
2022/09/23 06:30:58;;;;;;;2.62;0.93;;;;;;;;;;1865117;74;26262;-60
2022/09/23 06:33:26;;;;;;;1.35;0.50;;;;;;;;;;1880243;74;26735;-59
2022/09/23 06:36:01;;;;;;;0.70;0.60;;;;;;;;;;1889372;74;26288;-58
2022/09/23 06:41:19;;;;;;;2.72;0.82;;;;;;;;;;1870536;76;26326;-58
2022/09/23 06:43:46;;;;;;;0.82;0.80;;;;;;;;;;1861716;76;27356;-57
2022/09/23 06:46:15;;;;;;;2.05;0.75;;;;;;;;;;1850535;76;26352;-59
2022/09/23 06:48:43;;;;;;;0.70;0.70;;;;;;;;;;1871321;76;26232;-59
2022/09/23 06:51:17;;;;;;;1.42;0.62;;;;;;;;;;1871421;76;26251;-58
2022/09/23 06:53:40;;;;;;;1.47;0.78;;;;;;;;;;1867075;76;26344;-53
2022/09/23 06:56:10;;;;;;;2.67;0.80;;;;;;;;;;1863295;76;26298;-59
2022/09/23 06:58:39;;;;;;;0.70;0.70;;;;;;;;;;1871392;76;26248;-60
2022/09/23 07:01:08;;;;;;;2.05;0.70;;;;;;;;;;1871321;76;26279;-59
2022/09/23 07:03:35;;;;;;;0.60;0.60;;;;;;;;;;1871357;76;26244;-61
2022/09/23 07:06:03;;;;;;;0.80;0.80;;;;;;;;;;1868417;76;26272;-66
2022/09/23 07:08:32;;;;;;;0.82;0.72;;;;;;;;;;1867524;76;26653;-62
2022/09/23 07:11:01;;;;;;;1.50;0.60;;;;;;;;;;1865196;76;26268;-62
2022/09/23 07:13:28;;;;;;;0.70;0.70;;;;;;;;;;1866254;76;26266;-66
2022/09/23 07:16:00;;;;;;;2.60;0.60;;;;;;;;;;1870990;76;26777;-67
2022/09/23 07:18:29;;;;;;;1.35;0.70;;;;;;;;;;1870564;76;26744;-74
2022/09/23 07:20:57;;;;;;;0.55;0.55;;;;;;;;;;1864848;76;26324;-71
2022/09/23 07:23:25;;;;;;;0.70;0.70;;;;;;;;;;1868227;76;26244;-72
2022/09/23 07:25:52;;;;;;;0.60;0.60;;;;;;;;;;1871046;76;26724;-60
2022/09/23 07:28:20;;;;;;;0.50;0.50;;;;;;;;;;1869360;76;26240;-61
2022/09/23 07:30:47;;;;;;;1.85;0.70;;;;;;;;;;1869810;76;26974;-61
2022/09/23 07:33:15;;;;;;;3.67;0.70;;;;;;;;;;1862643;76;26347;-61
2022/09/23 07:35:42;;;;;;;0.98;0.70;;;;;;;;;;1862969;76;26764;-54
2022/09/23 07:38:10;;;;;;;0.72;0.70;;;;;;;;;;1861980;76;26332;-53
2022/09/23 07:40:38;;;;;;;0.90;0.70;;;;;;;;;;1864407;76;26776;-58
2022/09/23 07:43:07;;;;;;;1.45;0.72;;;;;;;;;;1864170;76;26296;-58
2022/09/23 07:45:35;;;;;;;0.68;0.60;;;;;;;;;;1862566;76;26303;-58
2022/09/23 07:48:03;;;;;;;1.60;0.65;;;;;;;;;;1863521;76;26272;-57
2022/09/23 07:50:32;;;;;;;0.75;0.75;;;;;;;;;;1864051;76;26241;-60
2022/09/23 07:53:01;;;;;;;0.70;0.70;;;;;;;;;;1864334;76;26375;-61
2022/09/23 07:55:28;;;;;;;0.60;0.60;;;;;;;;;;1864596;76;26253;-60
2022/09/23 07:57:55;;;;;;;1.02;0.65;;;;;;;;;;1863401;76;26248;-59
2022/09/23 08:00:23;;;;;;;0.70;0.70;;;;;;;;;;1865518;76;26293;-59
2022/09/23 08:02:51;;;;;;;0.60;0.60;;;;;;;;;;1863642;76;26240;-60
2022/09/23 08:05:18;;;;;;;2.92;0.60;;;;;;;;;;1864753;76;26877;-59
2022/09/23 08:07:45;;;;;;;0.70;0.70;;;;;;;;;;1865250;76;26737;-56
2022/09/23 08:10:12;;;;;;;1.75;0.60;;;;;;;;;;1864668;76;26229;-59
2022/09/23 08:12:40;;;;;;;0.70;0.70;;;;;;;;;;1865122;76;26358;-60
2022/09/23 08:15:07;;;;;;;0.80;0.80;;;;;;;;;;1865397;76;26357;-57
2022/09/23 08:17:34;;;;;;;1.35;0.60;;;;;;;;;;1865575;76;26256;-57
2022/09/23 08:20:02;;;;;;;1.85;0.80;;;;;;;;;;1865343;76;26634;-58
2022/09/23 08:22:29;;;;;;;1.30;0.82;;;;;;;;;;1863189;76;26244;-57
2022/09/23 08:24:57;;;;;;;0.75;0.60;;;;;;;;;;1864975;76;26240;-56
2022/09/23 08:27:26;;;;;;;0.60;0.60;;;;;;;;;;1864379;76;26745;-48
2022/09/23 08:29:53;;;;;;;0.65;0.65;;;;;;;;;;1864842;76;26960;-57
2022/09/23 08:32:21;;;;;;;0.55;0.55;;;;;;;;;;1863823;76;26766;-54
2022/09/23 08:34:48;;;;;;;0.70;0.70;;;;;;;;;;1865415;76;26304;-57
2022/09/23 08:37:15;;;;;;;0.85;0.85;;;;;;;;;;1864536;76;26411;-54
2022/09/23 08:39:43;;;;;;;0.60;0.60;;;;;;;;;;1862990;76;26264;-54
2022/09/23 08:42:15;;;;;;;0.72;0.72;;;;;;;;;;1863473;75;26311;-55
2022/09/23 08:44:46;;;;;;;0.60;0.60;;;;;;;;;;1864827;76;26332;-61
2022/09/23 08:47:15;;;;;;;1.05;0.80;;;;;;;;;;1860350;75;26726;-61
2022/09/23 08:49:46;;;;;;;0.60;0.60;;;;;;;;;;1857320;75;27447;-55
2022/09/23 08:52:15;;;;;;;0.60;0.60;;;;;;;;;;1858328;75;26581;-59
2022/09/23 08:54:43;;;;;;;0.50;0.50;;;;;;;;;;1858013;76;26310;-56
2022/09/23 08:57:11;;;;;;;1.52;0.60;;;;;;;;;;1858346;76;26275;-60
2022/09/23 08:59:43;;;;;;;0.62;0.62;;;;;;;;;;1860825;75;26349;-55
2022/09/23 09:02:12;;;;;;;0.60;0.60;;;;;;;;;;1861431;75;26356;-55
2022/09/23 09:04:41;;;;;;;0.60;0.60;;;;;;;;;;1860346;76;26233;-59
2022/09/23 09:07:12;;;;;;;0.80;0.70;;;;;;;;;;1861325;76;26705;-55
2022/09/23 09:09:44;;;;;;;0.70;0.70;;;;;;;;;;1862263;76;26767;-59
2022/09/23 09:12:12;;;;;;;0.60;0.60;;;;;;;;;;1861510;75;26249;-53
2022/09/23 09:14:44;;;;;;;1.15;0.62;;;;;;;;;;1863368;76;26308;-55
2022/09/23 09:17:16;;;;;;;0.70;0.65;;;;;;;;;;1857901;76;26272;-54
2022/09/23 09:19:51;;;;;;;0.55;0.55;;;;;;;;;;1860580;76;26730;-59
2022/09/23 09:22:20;;;;;;;4.58;0.88;;;;;;;;;;1862013;76;26264;-54
2022/09/23 09:24:49;;;;;;;0.55;0.55;;;;;;;;;;1863040;75;26311;-54
2022/09/23 09:27:16;;;;;;;1.10;0.70;;;;;;;;;;1862291;76;26304;-58
2022/09/23 09:29:48;;;;;;;0.70;0.70;;;;;;;;;;1862979;76;26240;-57
2022/09/23 09:32:17;;;;;;;0.70;0.70;;;;;;;;;;1864111;76;26282;-54
2022/09/23 09:34:46;;;;;;;0.75;0.70;;;;;;;;;;1864675;76;26281;-58
2022/09/23 09:37:14;;;;;;;1.30;0.70;;;;;;;;;;1860839;76;26365;-59
2022/09/23 09:39:42;;;;;;;0.78;0.78;;;;;;;;;;1862949;76;26354;-55
2022/09/23 09:42:10;;;;;;;0.50;0.50;;;;;;;;;;1863919;76;25848;-57
2022/09/23 09:44:57;;;;;;;0.53;0.53;;;;;;;;;;1859265;76;26648;-59
2022/09/23 09:47:45;;;;;;;1.07;0.60;;;;;;;;;;1862275;76;26902;-57
2022/09/23 09:50:12;;;;;;;0.60;0.60;;;;;;;;;;1856943;76;26321;-61
2022/09/23 09:52:41;;;;;;;0.53;0.53;;;;;;;;;;1860323;76;26287;-62
2022/09/23 09:55:13;;;;;;;0.70;0.70;;;;;;;;;;1860525;76;26334;-58
2022/09/23 09:57:54;;;;;;;0.60;0.60;;;;;;;;;;1860499;76;26252;-56
2022/09/23 10:00:28;;;;;;;1.10;0.62;;;;;;;;;;1861625;76;26202;-51
2022/09/23 10:02:53;;;;;;;0.85;0.65;;;;;;;;;;1859886;76;26840;-55
2022/09/23 10:05:33;;;;;;;0.60;0.60;;;;;;;;;;1863041;76;26238;-52
2022/09/23 10:08:05;;;;;;;0.68;0.68;;;;;;;;;;1863390;76;26686;-56
2022/09/23 10:10:32;;;;;;;0.60;0.60;;;;;;;;;;1837659;76;26280;-56
2022/09/23 10:13:01;;;;;;;0.68;0.68;;;;;;;;;;1864538;76;26265;-60
2022/09/23 10:15:31;;;;;;;0.60;0.60;;;;;;;;;;1862357;76;26326;-57
2022/09/23 10:18:00;;;;;;;0.60;0.60;;;;;;;;;;1861143;76;26304;-56
2022/09/23 10:20:35;;;;;;;0.50;0.50;;;;;;;;;;1861407;76;26318;-58
2022/09/23 10:23:02;;;;;;;0.50;0.50;;;;;;;;;;1861082;76;26914;-54
2022/09/23 10:25:30;;;;;;;0.40;0.40;;;;;;;;;;1866980;75;26275;-61
2022/09/23 10:27:57;;;;;;;0.60;0.60;;;;;;;;;;1864424;76;27374;-53
2022/09/23 10:30:26;;;;;;;0.95;0.60;;;;;;;;;;1865502;76;26350;-60
2022/09/23 10:32:55;;;;;;;0.50;0.50;;;;;;;;;;1860457;75;26286;-55
2022/09/23 10:35:24;;;;;;;0.50;0.50;;;;;;;;;;1861988;75;26543;-53
2022/09/23 10:37:55;;;;;;;0.57;0.57;;;;;;;;;;1863255;76;26342;-57
2022/09/23 10:48:54;;;;;;;0.50;0.50;;;;;;;;;;1848138;76;26284;-58
2022/09/23 10:51:38;;;;;;;0.50;0.50;;;;;;;;;;1860935;76;26268;-54
2022/09/23 10:54:10;;;;;;;0.40;0.40;;;;;;;;;;1861058;76;26757;-58
2022/09/23 10:56:42;;;;;;;0.60;0.60;;;;;;;;;;1859739;75;25322;-59
2022/09/23 10:59:11;;;;;;;0.40;0.40;;;;;;;;;;1861358;75;26264;-61
2022/09/23 11:01:39;;;;;;;0.50;0.50;;;;;;;;;;1862723;76;26248;-52
2022/09/23 11:04:23;;;;;;;0.42;0.42;;;;;;;;;;1862806;76;26343;-58
2022/09/23 11:06:55;;;;;;;0.40;0.40;;;;;;;;;;1865164;76;26246;-54
2022/09/23 11:09:27;;;;;;;0.50;0.50;;;;;;;;;;1864804;76;26728;-57
2022/09/23 11:11:55;;;;;;;0.47;0.40;;;;;;;;;;1863119;76;26246;-60
2022/09/23 11:14:40;;;;;;;0.45;0.45;;;;;;;;;;1863785;76;26264;-55
2022/09/23 11:17:13;;;;;;;0.60;0.60;;;;;;;;;;1865950;76;26295;-53
2022/09/23 11:19:52;;;;;;;0.40;0.40;;;;;;;;;;1863499;76;26319;-60
2022/09/23 11:22:21;;;;;;;0.53;0.53;;;;;;;;;;1861942;76;26375;-54
2022/09/23 11:25:07;;;;;;;0.33;0.33;;;;;;;;;;1863644;76;26315;-53
2022/09/23 11:27:41;;;;;;;0.47;0.47;;;;;;;;;;1863439;76;26859;-58
2022/09/23 11:30:10;;;;;;;0.30;0.30;;;;;;;;;;1864418;76;26276;-55
2022/09/23 11:32:42;;;;;;;0.50;0.50;;;;;;;;;;1860143;76;26318;-54
2022/09/23 11:35:17;;;;;;;0.47;0.47;;;;;;;;;;1865958;76;26254;-53
2022/09/23 11:37:46;;;;;;;0.40;0.40;;;;;;;;;;1860176;76;26276;-54
2022/09/23 11:40:15;;;;;;;0.50;0.50;;;;;;;;;;1862216;76;26257;-54
2022/09/23 11:42:52;;;;;;;0.37;0.37;;;;;;;;;;1862339;76;26299;-59
2022/09/23 11:45:24;;;;;;;0.30;0.30;;;;;;;;;;1861083;76;26677;-53
2022/09/23 11:47:53;;;;;;;0.40;0.40;;;;;;;;;;1860468;76;26265;-59
2022/09/23 11:50:24;;;;;;;0.40;0.40;;;;;;;;;;1861960;76;26661;-57
2022/09/23 11:52:52;;;;;;;0.40;0.40;;;;;;;;;;1861887;76;26298;-56
2022/09/23 11:55:31;;;;;;;0.40;0.40;;;;;;;;;;1862415;76;26792;-55
2022/09/23 11:58:02;;;;;;;0.70;0.50;;;;;;;;;;1863148;76;26740;-56
2022/09/23 12:00:33;;;;;;;0.60;0.60;;;;;;;;;;1862243;76;26653;-59
2022/09/23 12:03:17;;;;;;;0.55;0.55;;;;;;;;;;1863362;76;26272;-59
2022/09/23 12:05:48;;;;;;;0.40;0.40;;;;;;;;;;1860992;76;26823;-59
2022/09/23 12:08:32;;;;;;;0.75;0.40;;;;;;;;;;1861842;76;26702;-58
2022/09/23 12:11:01;;;;;;;0.50;0.50;;;;;;;;;;1862621;76;26721;-55
2022/09/23 12:13:39;;;;;;;0.30;0.30;;;;;;;;;;1862731;76;26275;-56
2022/09/23 12:16:24;;;;;;;0.53;0.50;;;;;;;;;;1861789;76;26819;-55
2022/09/23 12:18:59;;;;;;;0.40;0.40;;;;;;;;;;1861902;76;26794;-53
2022/09/23 12:21:46;;;;;;;0.40;0.40;;;;;;;;;;1798942;76;26293;-56
2022/09/23 12:24:19;;;;;;;0.40;0.40;;;;;;;;;;1863771;76;26230;-53
2022/09/23 12:26:48;;;;;;;0.50;0.50;;;;;;;;;;1862455;76;26365;-56
2022/09/23 12:29:15;;;;;;;0.40;0.40;;;;;;;;;;1861423;76;26658;-54
2022/09/23 12:31:43;;;;;;;0.68;0.68;;;;;;;;;;1861623;76;26284;-60
2022/09/23 12:34:24;;;;;;;0.42;0.42;;;;;;;;;;1862656;76;26787;-53
2022/09/23 12:36:51;;;;;;;0.60;0.60;;;;;;;;;;1819858;76;26238;-56
2022/09/23 12:39:29;;;;;;;0.50;0.50;;;;;;;;;;1861897;76;26880;-53
2022/09/23 12:41:58;;;;;;;0.30;0.30;;;;;;;;;;1859821;76;26842;-54
2022/09/23 12:44:36;;;;;;;0.42;0.42;;;;;;;;;;1840571;76;26775;-55
2022/09/23 12:47:24;;;;;;;0.40;0.40;;;;;;;;;;1863797;76;26787;-56
2022/09/23 12:49:50;;;;;;;0.50;0.50;;;;;;;;;;1863801;76;26295;-53
2022/09/23 12:52:18;;;;;;;0.40;0.40;;;;;;;;;;1864780;76;27227;-56
2022/09/23 12:54:47;;;;;;;0.50;0.50;;;;;;;;;;1864094;76;26310;-55
2022/09/23 12:57:16;;;;;;;0.50;0.50;;;;;;;;;;1864104;76;26256;-56
2022/09/23 12:59:57;;;;;;;0.50;0.50;;;;;;;;;;1859688;76;26373;-60
2022/09/23 13:02:35;;;;;;;0.50;0.50;;;;;;;;;;1864629;76;26300;-54
2022/09/23 13:07:50;;;;;;;0.53;0.53;;;;;;;;;;1864469;76;26261;-57
2022/09/23 13:10:34;;;;;;;0.37;0.37;;;;;;;;;;1864136;76;26265;-54
2022/09/23 13:13:01;;;;;;;0.40;0.40;;;;;;;;;;1863581;76;26362;-51
2022/09/23 13:15:31;;;;;;;0.40;0.40;;;;;;;;;;1864789;76;26729;-54
2022/09/23 13:18:17;;;;;;;0.50;0.50;;;;;;;;;;1864664;76;26530;-54
2022/09/23 13:20:45;;;;;;;0.50;0.50;;;;;;;;;;1862859;76;26269;-56
2022/09/23 13:23:20;;;;;;;0.47;0.47;;;;;;;;;;1864337;76;26261;-51
2022/09/23 13:25:50;;;;;;;0.50;0.50;;;;;;;;;;1866162;76;26260;-53
2022/09/23 13:28:24;;;;;;;0.50;0.50;;;;;;;;;;1865589;76;26261;-52
2022/09/23 13:30:52;;;;;;;0.33;0.33;;;;;;;;;;1864043;76;26318;-55
2022/09/23 13:33:23;;;;;;;0.40;0.40;;;;;;;;;;1864804;76;26291;-56
2022/09/23 13:35:52;;;;;;;0.40;0.40;;;;;;;;;;1863381;76;26357;-55
2022/09/23 13:38:26;;;;;;;0.40;0.40;;;;;;;;;;1865270;76;26268;-53
2022/09/23 13:41:01;;;;;;;0.40;0.40;;;;;;;;;;1863699;76;26319;-57
2022/09/23 13:43:34;;;;;;;0.40;0.40;;;;;;;;;;1862301;76;26281;-55
2022/09/23 13:46:00;;;;;;;0.30;0.30;;;;;;;;;;1861448;76;26294;-52
2022/09/23 13:48:27;;;;;;;1.27;0.45;;;;;;;;;;1859430;76;26200;-55
2022/09/23 13:50:55;;;;;;;0.55;0.55;;;;;;;;;;1860129;76;26228;-55
2022/09/23 13:53:23;;;;;;;0.60;0.60;;;;;;;;;;1862309;76;26303;-56
2022/09/23 13:56:04;;;;;;;0.50;0.50;;;;;;;;;;1858889;76;26304;-58
2022/09/23 13:58:32;;;;;;;0.30;0.30;;;;;;;;;;1861749;76;26299;-57
2022/09/23 14:01:00;;;;;;;0.50;0.50;;;;;;;;;;1860896;76;26334;-57
2022/09/23 14:03:37;;;;;;;0.45;0.45;;;;;;;;;;1863617;76;26268;-54
2022/09/23 14:06:06;;;;;;;0.40;0.40;;;;;;;;;;1863566;76;26339;-56
2022/09/23 14:08:34;;;;;;;0.40;0.40;;;;;;;;;;1858681;76;26244;-55
2022/09/23 14:11:05;;;;;;;0.40;0.40;;;;;;;;;;1864099;76;26772;-57
2022/09/23 14:13:32;;;;;;;0.60;0.40;;;;;;;;;;1862828;75;26328;-53
2022/09/23 14:16:01;;;;;;;0.40;0.40;;;;;;;;;;1861235;75;26299;-55
2022/09/23 14:18:33;;;;;;;0.60;0.60;;;;;;;;;;1863578;76;26359;-61
2022/09/23 14:21:00;;;;;;;0.45;0.45;;;;;;;;;;1864075;76;26260;-53
2022/09/23 14:23:27;;;;;;;0.30;0.30;;;;;;;;;;1861992;76;26733;-57
2022/09/23 14:25:56;;;;;;;1.42;0.60;;;;;;;;;;1859400;76;26331;-57
2022/09/23 14:28:24;;;;;;;3.05;0.62;;;;;;;;;;1854582;76;26293;-57
2022/09/23 14:30:53;;;;;;;1.50;0.70;;;;;;;;;;1858171;75;26352;-57
2022/09/23 14:33:25;;;;;;;2.42;0.60;;;;;;;;;;1857985;76;26259;-55
2022/09/23 14:35:54;;;;;;;0.72;0.50;;;;;;;;;;1857413;76;26582;-57
2022/09/23 14:41:16;;;;;;;0.50;0.50;;;;;;;;;;1862075;76;26771;-55
2022/09/23 14:43:54;;;;;;;0.60;0.60;;;;;;;;;;1856980;75;26335;-54
2022/09/23 14:46:22;;;;;;;3.02;0.72;;;;;;;;;;1853244;77;26281;-57
2022/09/23 14:48:57;;;;;;;1.75;0.60;;;;;;;;;;1853718;77;26719;-60
2022/09/23 14:51:32;;;;;;;2.15;0.78;;;;;;;;;;1853547;76;26299;-62
2022/09/23 14:54:18;;;;;;;2.98;0.90;;;;;;;;;;1852914;77;26293;-61
2022/09/23 14:56:46;;;;;;;6.40;1.10;;;;;;;;;;1854181;77;26296;-62
2022/09/23 14:59:22;;;;;;;1.65;0.55;;;;;;;;;;1854032;77;26309;-61
2022/09/23 15:01:49;;;;;;;5.83;0.88;;;;;;;;;;1853788;77;26260;-59
2022/09/23 15:04:24;;;;;;;4.30;0.90;;;;;;;;;;1852945;77;26421;-59
2022/09/23 15:06:56;;;;;;;3.05;0.93;;;;;;;;;;1852499;77;26264;-60
2022/09/23 15:09:27;;;;;;;1.95;0.70;;;;;;;;;;1853497;77;26326;-60
2022/09/23 15:12:08;;;;;;;3.40;0.80;;;;;;;;;;1853151;77;26261;-59
2022/09/23 15:14:40;;;;;;;2.00;0.88;;;;;;;;;;1851874;77;26318;-47
2022/09/23 15:17:09;;;;;;;4.70;0.70;;;;;;;;;;1851634;77;26362;-61
2022/09/23 15:19:36;;;;;;;0.82;0.80;;;;;;;;;;1854568;77;26758;-58